Terminal Aerodrome Forecast
Issued by NWS Pueblo, CO

Home | Current Version | Previous Version | Text Only | Print | Product List | Glossary On
Versions: 1 2 3 4 5 6 7 8 9 10 11 12 13 14 15 16 17 18 19 20 21 22 23 24
000
FTUS45 KPUB 201145
TAFALS
TAF
KALS 201145Z 2012/2112 VRB05KT P6SM SCT130
     FM201500 VRB03KT P6SM SCT110 BKN200
     FM202100 12008KT P6SM VCTS SCT090CB BKN200
     FM210200 VRB06KT P6SM SCT100 BKN200=

USA.gov is the U.S. government's official web portal to all federal, state and local government web resources and services.